sensor_id;sensor_type;location;lat;lon;timestamp;P1;durP1;ratioP1;P2;durP2;ratioP2
4244;SDS011;2136;48.502;9.194;2024-01-06T00:00:50;12.63;;;7.90;;
4244;SDS011;2136;48.502;9.194;2024-01-06T00:03:17;10.47;;;7.87;;
4244;SDS011;2136;48.502;9.194;2024-01-06T00:05:43;10.40;;;7.47;;
4244;SDS011;2136;48.502;9.194;2024-01-06T00:08:10;13.77;;;7.10;;
4244;SDS011;2136;48.502;9.194;2024-01-06T00:10:37;9.63;;;7.20;;
4244;SDS011;2136;48.502;9.194;2024-01-06T00:13:04;9.63;;;7.00;;
4244;SDS011;2136;48.502;9.194;2024-01-06T00:15:31;12.20;;;6.70;;
4244;SDS011;2136;48.502;9.194;2024-01-06T00:17:59;9.57;;;7.28;;
4244;SDS011;2136;48.502;9.194;2024-01-06T00:20:26;13.00;;;7.40;;
4244;SDS011;2136;48.502;9.194;2024-01-06T00:22:52;10.57;;;6.87;;
4244;SDS011;2136;48.502;9.194;2024-01-06T00:25:21;11.70;;;6.87;;
4244;SDS011;2136;48.502;9.194;2024-01-06T00:27:48;11.27;;;6.57;;
4244;SDS011;2136;48.502;9.194;2024-01-06T00:30:15;8.17;;;5.73;;
4244;SDS011;2136;48.502;9.194;2024-01-06T00:32:42;8.80;;;5.90;;
4244;SDS011;2136;48.502;9.194;2024-01-06T00:35:10;8.20;;;5.80;;
4244;SDS011;2136;48.502;9.194;2024-01-06T00:37:37;11.03;;;6.50;;
4244;SDS011;2136;48.502;9.194;2024-01-06T00:40:04;8.77;;;6.10;;
4244;SDS011;2136;48.502;9.194;2024-01-06T00:42:31;9.83;;;5.90;;
4244;SDS011;2136;48.502;9.194;2024-01-06T00:44:58;11.40;;;5.60;;
4244;SDS011;2136;48.502;9.194;2024-01-06T00:47:25;8.20;;;4.97;;
4244;SDS011;2136;48.502;9.194;2024-01-06T00:49:52;7.30;;;5.23;;
4244;SDS011;2136;48.502;9.194;2024-01-06T00:52:20;4.90;;;4.43;;
4244;SDS011;2136;48.502;9.194;2024-01-06T00:54:47;7.23;;;5.83;;
4244;SDS011;2136;48.502;9.194;2024-01-06T00:57:13;5.10;;;4.57;;
4244;SDS011;2136;48.502;9.194;2024-01-06T00:59:40;7.63;;;5.50;;
4244;SDS011;2136;48.502;9.194;2024-01-06T01:02:07;9.07;;;5.33;;
4244;SDS011;2136;48.502;9.194;2024-01-06T01:04:34;9.57;;;5.67;;
4244;SDS011;2136;48.502;9.194;2024-01-06T01:07:00;9.20;;;6.60;;
4244;SDS011;2136;48.502;9.194;2024-01-06T01:09:29;10.20;;;6.67;;
4244;SDS011;2136;48.502;9.194;2024-01-06T01:11:56;9.80;;;6.90;;
4244;SDS011;2136;48.502;9.194;2024-01-06T01:14:23;11.70;;;7.40;;
4244;SDS011;2136;48.502;9.194;2024-01-06T01:16:49;16.40;;;8.40;;
4244;SDS011;2136;48.502;9.194;2024-01-06T01:19:16;12.87;;;7.80;;
4244;SDS011;2136;48.502;9.194;2024-01-06T01:21:43;12.10;;;8.53;;
4244;SDS011;2136;48.502;9.194;2024-01-06T01:24:10;12.47;;;8.20;;
4244;SDS011;2136;48.502;9.194;2024-01-06T01:26:38;11.53;;;8.37;;
4244;SDS011;2136;48.502;9.194;2024-01-06T01:29:05;13.60;;;8.97;;
4244;SDS011;2136;48.502;9.194;2024-01-06T01:31:31;14.00;;;9.10;;
4244;SDS011;2136;48.502;9.194;2024-01-06T01:33:59;12.63;;;8.50;;
4244;SDS011;2136;48.502;9.194;2024-01-06T01:36:26;11.00;;;7.13;;
4244;SDS011;2136;48.502;9.194;2024-01-06T01:38:52;15.80;;;8.77;;
4244;SDS011;2136;48.502;9.194;2024-01-06T01:41:19;9.00;;;7.70;;
4244;SDS011;2136;48.502;9.194;2024-01-06T01:43:47;14.83;;;7.80;;
4244;SDS011;2136;48.502;9.194;2024-01-06T01:46:20;15.00;;;7.80;;
4244;SDS011;2136;48.502;9.194;2024-01-06T01:48:47;9.80;;;7.33;;
4244;SDS011;2136;48.502;9.194;2024-01-06T01:51:14;11.63;;;7.60;;
4244;SDS011;2136;48.502;9.194;2024-01-06T01:53:41;12.53;;;7.73;;
4244;SDS011;2136;48.502;9.194;2024-01-06T01:56:08;13.63;;;8.10;;
4244;SDS011;2136;48.502;9.194;2024-01-06T01:58:35;10.40;;;7.10;;
4244;SDS011;2136;48.502;9.194;2024-01-06T02:01:04;10.77;;;6.70;;
4244;SDS011;2136;48.502;9.194;2024-01-06T02:03:30;14.37;;;7.90;;
4244;SDS011;2136;48.502;9.194;2024-01-06T02:05:57;14.10;;;7.67;;
4244;SDS011;2136;48.502;9.194;2024-01-06T02:08:24;10.23;;;6.00;;
4244;SDS011;2136;48.502;9.194;2024-01-06T02:10:53;7.70;;;6.50;;
4244;SDS011;2136;48.502;9.194;2024-01-06T02:13:21;9.10;;;7.10;;
4244;SDS011;2136;48.502;9.194;2024-01-06T02:15:48;9.83;;;7.43;;
4244;SDS011;2136;48.502;9.194;2024-01-06T02:18:17;14.37;;;7.33;;
4244;SDS011;2136;48.502;9.194;2024-01-06T02:20:43;11.63;;;7.13;;
4244;SDS011;2136;48.502;9.194;2024-01-06T02:23:13;10.40;;;7.60;;
4244;SDS011;2136;48.502;9.194;2024-01-06T02:25:40;13.73;;;7.40;;
4244;SDS011;2136;48.502;9.194;2024-01-06T02:28:07;26.93;;;8.27;;
4244;SDS011;2136;48.502;9.194;2024-01-06T02:30:34;11.30;;;8.43;;
4244;SDS011;2136;48.502;9.194;2024-01-06T02:33:01;9.73;;;7.57;;
4244;SDS011;2136;48.502;9.194;2024-01-06T02:35:27;11.67;;;7.50;;
4244;SDS011;2136;48.502;9.194;2024-01-06T02:37:54;15.13;;;7.20;;
4244;SDS011;2136;48.502;9.194;2024-01-06T02:40:22;12.77;;;7.67;;
4244;SDS011;2136;48.502;9.194;2024-01-06T02:42:49;13.90;;;7.40;;
4244;SDS011;2136;48.502;9.194;2024-01-06T02:45:16;12.53;;;8.13;;
4244;SDS011;2136;48.502;9.194;2024-01-06T02:47:43;13.90;;;7.93;;
4244;SDS011;2136;48.502;9.194;2024-01-06T02:50:09;10.93;;;6.83;;
4244;SDS011;2136;48.502;9.194;2024-01-06T02:52:36;7.63;;;6.80;;
4244;SDS011;2136;48.502;9.194;2024-01-06T02:55:03;10.20;;;6.67;;
4244;SDS011;2136;48.502;9.194;2024-01-06T02:57:32;7.73;;;5.83;;
4244;SDS011;2136;48.502;9.194;2024-01-06T02:59:59;7.43;;;6.10;;
4244;SDS011;2136;48.502;9.194;2024-01-06T03:02:25;6.40;;;5.60;;
4244;SDS011;2136;48.502;9.194;2024-01-06T03:04:52;10.37;;;6.00;;
4244;SDS011;2136;48.502;9.194;2024-01-06T03:07:20;12.10;;;6.20;;
4244;SDS011;2136;48.502;9.194;2024-01-06T03:09:46;12.23;;;6.37;;
4244;SDS011;2136;48.502;9.194;2024-01-06T03:12:13;10.40;;;6.17;;
4244;SDS011;2136;48.502;9.194;2024-01-06T03:14:41;10.80;;;6.80;;
4244;SDS011;2136;48.502;9.194;2024-01-06T03:17:08;9.83;;;6.40;;
4244;SDS011;2136;48.502;9.194;2024-01-06T03:19:36;9.77;;;6.60;;
4244;SDS011;2136;48.502;9.194;2024-01-06T03:22:03;10.83;;;6.80;;
4244;SDS011;2136;48.502;9.194;2024-01-06T03:24:30;11.50;;;7.30;;
4244;SDS011;2136;48.502;9.194;2024-01-06T03:26:57;10.63;;;8.27;;
4244;SDS011;2136;48.502;9.194;2024-01-06T03:29:23;7.60;;;6.27;;
4244;SDS011;2136;48.502;9.194;2024-01-06T03:31:52;8.63;;;5.63;;
4244;SDS011;2136;48.502;9.194;2024-01-06T03:34:18;13.10;;;7.27;;
4244;SDS011;2136;48.502;9.194;2024-01-06T03:36:45;9.67;;;6.73;;
4244;SDS011;2136;48.502;9.194;2024-01-06T03:39:12;10.13;;;6.20;;
4244;SDS011;2136;48.502;9.194;2024-01-06T03:41:39;7.83;;;5.37;;
4244;SDS011;2136;48.502;9.194;2024-01-06T03:44:06;8.20;;;5.70;;
4244;SDS011;2136;48.502;9.194;2024-01-06T03:46:33;10.37;;;6.30;;
4244;SDS011;2136;48.502;9.194;2024-01-06T03:49:01;8.23;;;5.30;;
4244;SDS011;2136;48.502;9.194;2024-01-06T03:51:28;5.47;;;4.93;;
4244;SDS011;2136;48.502;9.194;2024-01-06T03:53:55;8.40;;;6.13;;
4244;SDS011;2136;48.502;9.194;2024-01-06T03:56:22;7.20;;;5.43;;
4244;SDS011;2136;48.502;9.194;2024-01-06T03:58:49;9.53;;;5.43;;
4244;SDS011;2136;48.502;9.194;2024-01-06T04:01:15;9.20;;;5.30;;
4244;SDS011;2136;48.502;9.194;2024-01-06T04:03:42;6.30;;;4.80;;
4244;SDS011;2136;48.502;9.194;2024-01-06T04:06:10;7.40;;;4.57;;
4244;SDS011;2136;48.502;9.194;2024-01-06T04:08:38;8.27;;;5.00;;
4244;SDS011;2136;48.502;9.194;2024-01-06T04:11:05;5.43;;;4.83;;
4244;SDS011;2136;48.502;9.194;2024-01-06T04:13:32;7.50;;;4.63;;
4244;SDS011;2136;48.502;9.194;2024-01-06T04:15:59;7.93;;;5.53;;
4244;SDS011;2136;48.502;9.194;2024-01-06T04:18:26;8.47;;;5.63;;
4244;SDS011;2136;48.502;9.194;2024-01-06T04:20:53;10.43;;;4.50;;
4244;SDS011;2136;48.502;9.194;2024-01-06T04:23:22;7.10;;;5.03;;
4244;SDS011;2136;48.502;9.194;2024-01-06T04:25:48;8.00;;;4.60;;
4244;SDS011;2136;48.502;9.194;2024-01-06T04:28:15;7.70;;;4.40;;
4244;SDS011;2136;48.502;9.194;2024-01-06T04:30:42;7.43;;;4.73;;
4244;SDS011;2136;48.502;9.194;2024-01-06T04:33:09;7.47;;;5.20;;
4244;SDS011;2136;48.502;9.194;2024-01-06T04:35:35;7.47;;;4.57;;
4244;SDS011;2136;48.502;9.194;2024-01-06T04:38:02;10.27;;;5.10;;
4244;SDS011;2136;48.502;9.194;2024-01-06T04:40:31;9.60;;;5.03;;
4244;SDS011;2136;48.502;9.194;2024-01-06T04:42:57;4.47;;;3.93;;
4244;SDS011;2136;48.502;9.194;2024-01-06T04:45:24;5.47;;;4.17;;
4244;SDS011;2136;48.502;9.194;2024-01-06T04:47:51;10.27;;;4.47;;
4244;SDS011;2136;48.502;9.194;2024-01-06T04:50:18;7.37;;;3.97;;
4244;SDS011;2136;48.502;9.194;2024-01-06T04:52:45;5.43;;;4.10;;
4244;SDS011;2136;48.502;9.194;2024-01-06T04:55:11;4.10;;;3.60;;
4244;SDS011;2136;48.502;9.194;2024-01-06T04:57:39;4.93;;;3.80;;
4244;SDS011;2136;48.502;9.194;2024-01-06T05:00:07;4.03;;;3.73;;
4244;SDS011;2136;48.502;9.194;2024-01-06T05:02:34;5.00;;;3.70;;
4244;SDS011;2136;48.502;9.194;2024-01-06T05:05:01;6.80;;;3.57;;
4244;SDS011;2136;48.502;9.194;2024-01-06T05:07:28;7.80;;;3.80;;
4244;SDS011;2136;48.502;9.194;2024-01-06T05:09:54;7.43;;;3.43;;
4244;SDS011;2136;48.502;9.194;2024-01-06T05:12:21;4.50;;;3.90;;
4244;SDS011;2136;48.502;9.194;2024-01-06T05:14:50;4.50;;;4.10;;
4244;SDS011;2136;48.502;9.194;2024-01-06T05:17:16;6.60;;;4.27;;
4244;SDS011;2136;48.502;9.194;2024-01-06T05:19:43;4.60;;;3.90;;
4244;SDS011;2136;48.502;9.194;2024-01-06T05:22:10;5.17;;;4.07;;
4244;SDS011;2136;48.502;9.194;2024-01-06T05:24:37;4.00;;;3.50;;
4244;SDS011;2136;48.502;9.194;2024-01-06T05:27:04;3.77;;;3.27;;
4244;SDS011;2136;48.502;9.194;2024-01-06T05:29:31;5.00;;;4.03;;
4244;SDS011;2136;48.502;9.194;2024-01-06T05:31:59;4.80;;;3.90;;
4244;SDS011;2136;48.502;9.194;2024-01-06T05:34:26;5.60;;;3.83;;
4244;SDS011;2136;48.502;9.194;2024-01-06T05:36:52;3.23;;;2.90;;
4244;SDS011;2136;48.502;9.194;2024-01-06T05:39:19;5.00;;;3.43;;
4244;SDS011;2136;48.502;9.194;2024-01-06T05:41:46;4.10;;;3.10;;
4244;SDS011;2136;48.502;9.194;2024-01-06T05:44:13;3.73;;;2.90;;
4244;SDS011;2136;48.502;9.194;2024-01-06T05:46:40;3.40;;;2.50;;
4244;SDS011;2136;48.502;9.194;2024-01-06T05:49:08;4.13;;;2.67;;
4244;SDS011;2136;48.502;9.194;2024-01-06T05:51:35;3.60;;;2.97;;
4244;SDS011;2136;48.502;9.194;2024-01-06T05:54:02;2.70;;;2.47;;
4244;SDS011;2136;48.502;9.194;2024-01-06T05:56:29;6.17;;;2.80;;
4244;SDS011;2136;48.502;9.194;2024-01-06T05:58:55;3.17;;;2.60;;
4244;SDS011;2136;48.502;9.194;2024-01-06T06:01:22;2.47;;;2.27;;
4244;SDS011;2136;48.502;9.194;2024-01-06T06:03:49;5.07;;;2.43;;
4244;SDS011;2136;48.502;9.194;2024-01-06T06:06:18;3.40;;;2.70;;
4244;SDS011;2136;48.502;9.194;2024-01-06T06:08:45;3.23;;;2.87;;
4244;SDS011;2136;48.502;9.194;2024-01-06T06:11:13;2.60;;;2.40;;
4244;SDS011;2136;48.502;9.194;2024-01-06T06:13:40;3.60;;;2.77;;
4244;SDS011;2136;48.502;9.194;2024-01-06T06:16:08;6.53;;;2.70;;
4244;SDS011;2136;48.502;9.194;2024-01-06T06:18:37;2.53;;;2.30;;
4244;SDS011;2136;48.502;9.194;2024-01-06T06:21:04;3.90;;;2.43;;
4244;SDS011;2136;48.502;9.194;2024-01-06T06:23:34;2.30;;;2.10;;
4244;SDS011;2136;48.502;9.194;2024-01-06T06:26:03;3.93;;;2.50;;
4244;SDS011;2136;48.502;9.194;2024-01-06T06:28:31;3.67;;;1.87;;
4244;SDS011;2136;48.502;9.194;2024-01-06T06:30:59;8.47;;;2.50;;
4244;SDS011;2136;48.502;9.194;2024-01-06T06:33:26;3.80;;;2.33;;
4244;SDS011;2136;48.502;9.194;2024-01-06T06:35:53;7.10;;;2.40;;
4244;SDS011;2136;48.502;9.194;2024-01-06T06:38:20;3.27;;;1.80;;
4244;SDS011;2136;48.502;9.194;2024-01-06T06:40:48;4.33;;;2.73;;
4244;SDS011;2136;48.502;9.194;2024-01-06T06:43:15;8.30;;;2.80;;
4244;SDS011;2136;48.502;9.194;2024-01-06T06:45:41;1.97;;;1.80;;
4244;SDS011;2136;48.502;9.194;2024-01-06T06:48:08;1.73;;;1.63;;
4244;SDS011;2136;48.502;9.194;2024-01-06T06:50:35;4.20;;;2.27;;
4244;SDS011;2136;48.502;9.194;2024-01-06T06:53:03;7.20;;;1.90;;
4244;SDS011;2136;48.502;9.194;2024-01-06T06:55:30;6.53;;;2.67;;
4244;SDS011;2136;48.502;9.194;2024-01-06T06:57:58;3.83;;;2.17;;
4244;SDS011;2136;48.502;9.194;2024-01-06T07:00:24;4.23;;;2.10;;
4244;SDS011;2136;48.502;9.194;2024-01-06T07:02:51;4.30;;;2.97;;
4244;SDS011;2136;48.502;9.194;2024-01-06T07:05:18;4.50;;;2.43;;
4244;SDS011;2136;48.502;9.194;2024-01-06T07:07:45;8.00;;;2.30;;
4244;SDS011;2136;48.502;9.194;2024-01-06T07:10:12;9.23;;;2.70;;
4244;SDS011;2136;48.502;9.194;2024-01-06T07:12:39;4.73;;;2.93;;
4244;SDS011;2136;48.502;9.194;2024-01-06T07:15:08;3.70;;;3.27;;
4244;SDS011;2136;48.502;9.194;2024-01-06T07:17:36;3.40;;;3.10;;
4244;SDS011;2136;48.502;9.194;2024-01-06T07:20:03;4.60;;;3.13;;
4244;SDS011;2136;48.502;9.194;2024-01-06T07:22:32;4.70;;;3.23;;
4244;SDS011;2136;48.502;9.194;2024-01-06T07:24:59;4.43;;;3.40;;
4244;SDS011;2136;48.502;9.194;2024-01-06T07:27:26;5.27;;;2.93;;
4244;SDS011;2136;48.502;9.194;2024-01-06T07:29:53;4.00;;;2.77;;
4244;SDS011;2136;48.502;9.194;2024-01-06T07:32:21;5.47;;;3.07;;
4244;SDS011;2136;48.502;9.194;2024-01-06T07:34:49;6.90;;;2.90;;
4244;SDS011;2136;48.502;9.194;2024-01-06T07:37:16;3.27;;;2.63;;
4244;SDS011;2136;48.502;9.194;2024-01-06T07:39:43;3.00;;;2.17;;
4244;SDS011;2136;48.502;9.194;2024-01-06T07:42:09;3.77;;;2.93;;
4244;SDS011;2136;48.502;9.194;2024-01-06T07:44:36;3.43;;;2.27;;
4244;SDS011;2136;48.502;9.194;2024-01-06T07:47:03;5.00;;;2.50;;
4244;SDS011;2136;48.502;9.194;2024-01-06T07:49:32;10.23;;;2.70;;
4244;SDS011;2136;48.502;9.194;2024-01-06T07:51:59;3.67;;;3.30;;
4244;SDS011;2136;48.502;9.194;2024-01-06T07:54:26;4.77;;;2.93;;
4244;SDS011;2136;48.502;9.194;2024-01-06T07:56:53;8.00;;;3.77;;
4244;SDS011;2136;48.502;9.194;2024-01-06T07:59:20;4.50;;;3.60;;
4244;SDS011;2136;48.502;9.194;2024-01-06T08:01:47;4.20;;;3.47;;
4244;SDS011;2136;48.502;9.194;2024-01-06T08:04:14;4.60;;;3.50;;
4244;SDS011;2136;48.502;9.194;2024-01-06T08:06:42;4.73;;;3.23;;
4244;SDS011;2136;48.502;9.194;2024-01-06T08:09:09;4.33;;;3.33;;
4244;SDS011;2136;48.502;9.194;2024-01-06T08:11:35;5.43;;;3.67;;
4244;SDS011;2136;48.502;9.194;2024-01-06T08:14:02;4.83;;;4.10;;
4244;SDS011;2136;48.502;9.194;2024-01-06T08:16:29;14.90;;;4.33;;
4244;SDS011;2136;48.502;9.194;2024-01-06T08:18:57;6.90;;;3.37;;
4244;SDS011;2136;48.502;9.194;2024-01-06T08:21:24;8.80;;;3.50;;
4244;SDS011;2136;48.502;9.194;2024-01-06T08:23:53;10.10;;;3.53;;
4244;SDS011;2136;48.502;9.194;2024-01-06T08:26:20;9.63;;;3.57;;
4244;SDS011;2136;48.502;9.194;2024-01-06T08:28:47;6.70;;;3.73;;
4244;SDS011;2136;48.502;9.194;2024-01-06T08:31:14;13.00;;;4.67;;
4244;SDS011;2136;48.502;9.194;2024-01-06T08:33:41;4.87;;;3.50;;
4244;SDS011;2136;48.502;9.194;2024-01-06T08:36:08;5.37;;;3.27;;
4244;SDS011;2136;48.502;9.194;2024-01-06T08:38:35;3.90;;;3.03;;
4244;SDS011;2136;48.502;9.194;2024-01-06T08:41:03;3.20;;;2.90;;
4244;SDS011;2136;48.502;9.194;2024-01-06T08:43:30;3.60;;;3.10;;
4244;SDS011;2136;48.502;9.194;2024-01-06T08:45:57;7.45;;;3.47;;
4244;SDS011;2136;48.502;9.194;2024-01-06T08:48:24;8.27;;;3.73;;
4244;SDS011;2136;48.502;9.194;2024-01-06T08:50:51;9.10;;;3.87;;
4244;SDS011;2136;48.502;9.194;2024-01-06T08:53:18;6.13;;;5.00;;
4244;SDS011;2136;48.502;9.194;2024-01-06T08:55:44;4.43;;;3.50;;
4244;SDS011;2136;48.502;9.194;2024-01-06T08:58:13;3.73;;;3.17;;
4244;SDS011;2136;48.502;9.194;2024-01-06T09:00:39;4.03;;;2.90;;
4244;SDS011;2136;48.502;9.194;2024-01-06T09:03:06;5.17;;;3.10;;
4244;SDS011;2136;48.502;9.194;2024-01-06T09:05:34;4.63;;;2.60;;
4244;SDS011;2136;48.502;9.194;2024-01-06T09:08:01;4.83;;;2.63;;
4244;SDS011;2136;48.502;9.194;2024-01-06T09:10:28;4.73;;;2.70;;
4244;SDS011;2136;48.502;9.194;2024-01-06T09:12:55;4.43;;;3.03;;
4244;SDS011;2136;48.502;9.194;2024-01-06T09:15:23;4.83;;;2.90;;
4244;SDS011;2136;48.502;9.194;2024-01-06T09:17:50;11.20;;;2.60;;
4244;SDS011;2136;48.502;9.194;2024-01-06T09:20:18;6.33;;;2.50;;
4244;SDS011;2136;48.502;9.194;2024-01-06T09:22:48;5.00;;;3.00;;
4244;SDS011;2136;48.502;9.194;2024-01-06T09:25:14;3.37;;;2.33;;
4244;SDS011;2136;48.502;9.194;2024-01-06T09:27:41;9.47;;;4.50;;
4244;SDS011;2136;48.502;9.194;2024-01-06T09:30:08;5.30;;;2.43;;
4244;SDS011;2136;48.502;9.194;2024-01-06T09:32:37;3.83;;;2.47;;
4244;SDS011;2136;48.502;9.194;2024-01-06T09:35:04;2.83;;;2.33;;
4244;SDS011;2136;48.502;9.194;2024-01-06T09:37:31;2.07;;;1.87;;
4244;SDS011;2136;48.502;9.194;2024-01-06T09:39:58;5.00;;;2.30;;
4244;SDS011;2136;48.502;9.194;2024-01-06T09:42:25;2.20;;;1.50;;
4244;SDS011;2136;48.502;9.194;2024-01-06T09:44:52;4.73;;;1.40;;
4244;SDS011;2136;48.502;9.194;2024-01-06T09:47:19;4.30;;;2.33;;
4244;SDS011;2136;48.502;9.194;2024-01-06T09:49:50;2.40;;;2.03;;
4244;SDS011;2136;48.502;9.194;2024-01-06T09:52:21;3.70;;;2.67;;
4244;SDS011;2136;48.502;9.194;2024-01-06T09:54:50;2.40;;;2.17;;
4244;SDS011;2136;48.502;9.194;2024-01-06T09:57:18;2.60;;;2.40;;
4244;SDS011;2136;48.502;9.194;2024-01-06T09:59:45;3.43;;;1.77;;
4244;SDS011;2136;48.502;9.194;2024-01-06T10:02:14;7.00;;;2.10;;
4244;SDS011;2136;48.502;9.194;2024-01-06T10:04:42;3.27;;;2.60;;
4244;SDS011;2136;48.502;9.194;2024-01-06T10:07:10;3.20;;;1.70;;
4244;SDS011;2136;48.502;9.194;2024-01-06T10:09:38;4.80;;;2.03;;
4244;SDS011;2136;48.502;9.194;2024-01-06T10:12:06;3.87;;;2.17;;
4244;SDS011;2136;48.502;9.194;2024-01-06T10:14:33;2.80;;;1.93;;
4244;SDS011;2136;48.502;9.194;2024-01-06T10:17:00;2.00;;;1.80;;
4244;SDS011;2136;48.502;9.194;2024-01-06T10:19:27;1.90;;;1.80;;
4244;SDS011;2136;48.502;9.194;2024-01-06T10:21:55;2.63;;;1.77;;
4244;SDS011;2136;48.502;9.194;2024-01-06T10:24:26;4.63;;;1.97;;
4244;SDS011;2136;48.502;9.194;2024-01-06T10:26:53;7.10;;;1.97;;
4244;SDS011;2136;48.502;9.194;2024-01-06T10:29:20;4.03;;;2.07;;
4244;SDS011;2136;48.502;9.194;2024-01-06T10:31:47;2.73;;;1.60;;
4244;SDS011;2136;48.502;9.194;2024-01-06T10:34:14;3.00;;;1.97;;
4244;SDS011;2136;48.502;9.194;2024-01-06T10:36:41;4.30;;;2.00;;
4244;SDS011;2136;48.502;9.194;2024-01-06T10:39:08;2.70;;;2.50;;
4244;SDS011;2136;48.502;9.194;2024-01-06T10:41:36;4.90;;;2.30;;
4244;SDS011;2136;48.502;9.194;2024-01-06T10:44:07;4.10;;;2.90;;
4244;SDS011;2136;48.502;9.194;2024-01-06T10:46:35;2.50;;;2.17;;
4244;SDS011;2136;48.502;9.194;2024-01-06T10:49:05;4.83;;;1.97;;
4244;SDS011;2136;48.502;9.194;2024-01-06T10:51:34;3.70;;;2.57;;
4244;SDS011;2136;48.502;9.194;2024-01-06T10:54:03;3.22;;;2.00;;
4244;SDS011;2136;48.502;9.194;2024-01-06T10:56:32;4.63;;;1.83;;
4244;SDS011;2136;48.502;9.194;2024-01-06T10:59:04;2.70;;;1.80;;
4244;SDS011;2136;48.502;9.194;2024-01-06T11:01:32;2.33;;;1.83;;
4244;SDS011;2136;48.502;9.194;2024-01-06T11:04:00;3.00;;;2.20;;
4244;SDS011;2136;48.502;9.194;2024-01-06T11:06:29;1.90;;;1.80;;
4244;SDS011;2136;48.502;9.194;2024-01-06T11:08:59;2.97;;;1.87;;
4244;SDS011;2136;48.502;9.194;2024-01-06T11:11:30;1.47;;;1.37;;
4244;SDS011;2136;48.502;9.194;2024-01-06T11:16:48;1.93;;;1.83;;
4244;SDS011;2136;48.502;9.194;2024-01-06T11:22:18;2.73;;;1.87;;
4244;SDS011;2136;48.502;9.194;2024-01-06T11:24:46;3.55;;;1.70;;
4244;SDS011;2136;48.502;9.194;2024-01-06T11:27:17;1.90;;;1.80;;
4244;SDS011;2136;48.502;9.194;2024-01-06T11:29:45;2.03;;;1.90;;
4244;SDS011;2136;48.502;9.194;2024-01-06T11:32:18;2.60;;;2.40;;
4244;SDS011;2136;48.502;9.194;2024-01-06T11:34:49;6.03;;;3.00;;
4244;SDS011;2136;48.502;9.194;2024-01-06T11:37:23;2.60;;;2.33;;
4244;SDS011;2136;48.502;9.194;2024-01-06T11:39:51;5.53;;;2.63;;
4244;SDS011;2136;48.502;9.194;2024-01-06T11:42:19;3.20;;;2.67;;
4244;SDS011;2136;48.502;9.194;2024-01-06T11:44:51;8.63;;;3.27;;
4244;SDS011;2136;48.502;9.194;2024-01-06T11:47:20;2.57;;;2.37;;
4244;SDS011;2136;48.502;9.194;2024-01-06T11:49:48;3.83;;;2.53;;
4244;SDS011;2136;48.502;9.194;2024-01-06T11:52:20;2.97;;;1.77;;
4244;SDS011;2136;48.502;9.194;2024-01-06T11:54:47;5.67;;;2.30;;
4244;SDS011;2136;48.502;9.194;2024-01-06T11:57:15;3.53;;;2.40;;
4244;SDS011;2136;48.502;9.194;2024-01-06T11:59:42;2.50;;;1.70;;
4244;SDS011;2136;48.502;9.194;2024-01-06T12:02:12;2.90;;;2.00;;
4244;SDS011;2136;48.502;9.194;2024-01-06T12:04:39;7.03;;;2.43;;
4244;SDS011;2136;48.502;9.194;2024-01-06T12:07:07;2.93;;;2.20;;
4244;SDS011;2136;48.502;9.194;2024-01-06T12:09:35;5.40;;;2.30;;
4244;SDS011;2136;48.502;9.194;2024-01-06T12:12:02;3.97;;;2.00;;
4244;SDS011;2136;48.502;9.194;2024-01-06T12:14:30;3.08;;;2.20;;
4244;SDS011;2136;48.502;9.194;2024-01-06T12:16:58;2.85;;;2.28;;
4244;SDS011;2136;48.502;9.194;2024-01-06T12:19:29;2.53;;;1.70;;
4244;SDS011;2136;48.502;9.194;2024-01-06T12:21:57;2.60;;;2.10;;
4244;SDS011;2136;48.502;9.194;2024-01-06T12:24:24;2.60;;;1.87;;
4244;SDS011;2136;48.502;9.194;2024-01-06T12:26:54;2.30;;;1.90;;
4244;SDS011;2136;48.502;9.194;2024-01-06T12:29:22;4.10;;;2.00;;
4244;SDS011;2136;48.502;9.194;2024-01-06T12:31:49;2.43;;;2.23;;
4244;SDS011;2136;48.502;9.194;2024-01-06T12:34:16;4.37;;;2.07;;
4244;SDS011;2136;48.502;9.194;2024-01-06T12:36:44;3.20;;;2.90;;
4244;SDS011;2136;48.502;9.194;2024-01-06T12:39:18;2.70;;;1.63;;
4244;SDS011;2136;48.502;9.194;2024-01-06T12:41:45;1.50;;;1.40;;
4244;SDS011;2136;48.502;9.194;2024-01-06T12:44:12;1.90;;;1.40;;
4244;SDS011;2136;48.502;9.194;2024-01-06T12:46:39;1.50;;;1.40;;
4244;SDS011;2136;48.502;9.194;2024-01-06T12:49:06;1.10;;;1.10;;
4244;SDS011;2136;48.502;9.194;2024-01-06T12:51:32;1.77;;;1.00;;
4244;SDS011;2136;48.502;9.194;2024-01-06T12:54:01;1.20;;;1.10;;
4244;SDS011;2136;48.502;9.194;2024-01-06T12:56:28;1.00;;;1.00;;
4244;SDS011;2136;48.502;9.194;2024-01-06T12:58:55;0.80;;;0.80;;
4244;SDS011;2136;48.502;9.194;2024-01-06T13:01:22;1.50;;;1.27;;
4244;SDS011;2136;48.502;9.194;2024-01-06T13:03:48;1.30;;;1.20;;
4244;SDS011;2136;48.502;9.194;2024-01-06T13:06:16;2.33;;;1.83;;
4244;SDS011;2136;48.502;9.194;2024-01-06T13:08:44;1.00;;;1.00;;
4244;SDS011;2136;48.502;9.194;2024-01-06T13:11:12;2.60;;;2.40;;
4244;SDS011;2136;48.502;9.194;2024-01-06T13:13:39;2.40;;;2.00;;
4244;SDS011;2136;48.502;9.194;2024-01-06T13:16:06;4.63;;;2.50;;
4244;SDS011;2136;48.502;9.194;2024-01-06T13:18:34;2.57;;;2.37;;
4244;SDS011;2136;48.502;9.194;2024-01-06T13:21:01;1.27;;;1.20;;
4244;SDS011;2136;48.502;9.194;2024-01-06T13:23:28;2.03;;;1.30;;
4244;SDS011;2136;48.502;9.194;2024-01-06T13:25:55;1.07;;;1.07;;
4244;SDS011;2136;48.502;9.194;2024-01-06T13:28:24;2.00;;;1.80;;
4244;SDS011;2136;48.502;9.194;2024-01-06T13:30:50;2.87;;;2.03;;
4244;SDS011;2136;48.502;9.194;2024-01-06T13:33:18;1.30;;;1.20;;
4244;SDS011;2136;48.502;9.194;2024-01-06T13:35:45;4.07;;;3.20;;
4244;SDS011;2136;48.502;9.194;2024-01-06T13:38:12;1.47;;;1.37;;
4244;SDS011;2136;48.502;9.194;2024-01-06T13:40:39;1.87;;;1.77;;
4244;SDS011;2136;48.502;9.194;2024-01-06T13:43:05;1.40;;;1.30;;
4244;SDS011;2136;48.502;9.194;2024-01-06T13:45:35;0.90;;;0.90;;
4244;SDS011;2136;48.502;9.194;2024-01-06T13:48:02;1.50;;;1.43;;
4244;SDS011;2136;48.502;9.194;2024-01-06T13:50:29;1.33;;;1.23;;
4244;SDS011;2136;48.502;9.194;2024-01-06T13:52:56;1.17;;;0.90;;
4244;SDS011;2136;48.502;9.194;2024-01-06T13:55:23;1.00;;;1.00;;
4244;SDS011;2136;48.502;9.194;2024-01-06T13:57:50;1.27;;;1.13;;
4244;SDS011;2136;48.502;9.194;2024-01-06T14:00:17;2.23;;;1.30;;
4244;SDS011;2136;48.502;9.194;2024-01-06T14:02:46;1.50;;;1.40;;
4244;SDS011;2136;48.502;9.194;2024-01-06T14:05:13;1.57;;;1.33;;
4244;SDS011;2136;48.502;9.194;2024-01-06T14:07:40;2.33;;;1.40;;
4244;SDS011;2136;48.502;9.194;2024-01-06T14:10:10;2.07;;;1.40;;
4244;SDS011;2136;48.502;9.194;2024-01-06T14:12:39;2.00;;;1.80;;
4244;SDS011;2136;48.502;9.194;2024-01-06T14:15:06;2.33;;;1.53;;
4244;SDS011;2136;48.502;9.194;2024-01-06T14:17:34;4.70;;;2.40;;
4244;SDS011;2136;48.502;9.194;2024-01-06T14:20:03;4.70;;;2.20;;
4244;SDS011;2136;48.502;9.194;2024-01-06T14:22:30;4.22;;;2.60;;
4244;SDS011;2136;48.502;9.194;2024-01-06T14:24:57;3.00;;;2.33;;
4244;SDS011;2136;48.502;9.194;2024-01-06T14:27:24;4.97;;;3.00;;
4244;SDS011;2136;48.502;9.194;2024-01-06T14:29:53;4.57;;;2.77;;
4244;SDS011;2136;48.502;9.194;2024-01-06T14:32:21;2.93;;;2.40;;
4244;SDS011;2136;48.502;9.194;2024-01-06T14:34:49;5.20;;;2.33;;
4244;SDS011;2136;48.502;9.194;2024-01-06T14:37:17;2.33;;;1.67;;
4244;SDS011;2136;48.502;9.194;2024-01-06T14:39:44;2.13;;;2.03;;
4244;SDS011;2136;48.502;9.194;2024-01-06T14:42:11;2.20;;;2.00;;
4244;SDS011;2136;48.502;9.194;2024-01-06T14:44:38;5.47;;;1.57;;
4244;SDS011;2136;48.502;9.194;2024-01-06T14:47:05;1.60;;;1.37;;
4244;SDS011;2136;48.502;9.194;2024-01-06T14:49:32;1.70;;;1.60;;
4244;SDS011;2136;48.502;9.194;2024-01-06T14:51:59;2.10;;;1.83;;
4244;SDS011;2136;48.502;9.194;2024-01-06T14:54:29;2.87;;;2.43;;
4244;SDS011;2136;48.502;9.194;2024-01-06T14:56:58;1.40;;;1.30;;
4244;SDS011;2136;48.502;9.194;2024-01-06T14:59:25;2.30;;;2.10;;
4244;SDS011;2136;48.502;9.194;2024-01-06T15:01:51;2.30;;;2.10;;
4244;SDS011;2136;48.502;9.194;2024-01-06T15:04:18;2.30;;;2.10;;
4244;SDS011;2136;48.502;9.194;2024-01-06T15:06:45;4.93;;;2.80;;
4244;SDS011;2136;48.502;9.194;2024-01-06T15:09:13;2.87;;;2.03;;
4244;SDS011;2136;48.502;9.194;2024-01-06T15:11:41;3.53;;;1.77;;
4244;SDS011;2136;48.502;9.194;2024-01-06T15:14:08;2.50;;;2.00;;
4244;SDS011;2136;48.502;9.194;2024-01-06T15:16:35;1.80;;;1.63;;
4244;SDS011;2136;48.502;9.194;2024-01-06T15:19:02;2.17;;;2.00;;